Mc Arthur, Ohio
Current Conditions -  °F | °C
As of 12:35 PM on Saturday 25 Oct 2014 (Local Time) from KUNI Reporting Station
Overcast Overcast  
Wind Chill: 62°   Ceiling: 5500
Heat Index: 62°   Visibility: 10mi
Dew Point: 49°   Wind: 8mph
Humidity: 60%   Direction: 200°SSW
Pressure: 29.97"   Gusts: NA
Location:  39.2719°N, 82.4596°W
Report Text: KUNI 251635Z AUTO 20007KT 10SM OVC055 17/09 A2997 RMK AO2 T01690092
Loading
Personal Weather Stations






























Interactive Weather Map
Tropical Storm Tracking
New forecast layout! Learn more

10-Day Weather Forecast

Advertisements
Track Severe Weather on mobile